createdAt,value
2023-03-06T00:02:20.409Z,94787.31
2023-03-06T00:04:46.970Z,94782.75
2023-03-06T00:07:13.450Z,94780.34
2023-03-06T00:09:39.930Z,94780.09
2023-03-06T00:12:06.799Z,94773.16
2023-03-06T00:14:33.300Z,94769.59
2023-03-06T00:16:59.779Z,94770.63
2023-03-06T00:19:27.443Z,94772.69
2023-03-06T00:21:53.956Z,94773.50
2023-03-06T00:24:20.453Z,94773.53
2023-03-06T00:26:46.954Z,94768.00
2023-03-06T00:29:13.510Z,94765.69
2023-03-06T00:31:40.025Z,94764.38
2023-03-06T00:34:06.711Z,94765.03
2023-03-06T00:36:33.329Z,94760.66
2023-03-06T00:38:59.860Z,94763.75
2023-03-06T00:41:26.369Z,94758.22
2023-03-06T00:43:52.832Z,94754.47
2023-03-06T00:46:19.411Z,94759.34
2023-03-06T00:48:45.915Z,94766.31
2023-03-06T00:51:14.021Z,94764.50
2023-03-06T00:53:40.595Z,94763.88
2023-03-06T00:56:07.496Z,94769.28
2023-03-06T00:58:33.968Z,94764.25
2023-03-06T01:01:00.652Z,94757.81
2023-03-06T01:03:27.122Z,94751.13
2023-03-06T01:05:53.688Z,94744.56
2023-03-06T01:08:20.214Z,94749.66
2023-03-06T01:10:46.731Z,94747.69
2023-03-06T01:13:13.281Z,94746.94
2023-03-06T01:15:39.753Z,94740.50
2023-03-06T01:18:07.474Z,94740.34
2023-03-06T01:20:33.972Z,94736.63
2023-03-06T01:23:00.453Z,94730.06
2023-03-06T01:25:27.057Z,94732.69
2023-03-06T01:27:53.596Z,94735.28
2023-03-06T01:30:20.598Z,94722.63
2023-03-06T01:32:47.563Z,94726.34
2023-03-06T01:35:14.053Z,94723.63
2023-03-06T01:37:41.198Z,94730.09
2023-03-06T01:40:09.989Z,94721.19
2023-03-06T01:42:36.622Z,94715.63
2023-03-06T01:45:14.971Z,94712.88
2023-03-06T01:47:41.491Z,94713.38
2023-03-06T01:50:11.751Z,94704.09
2023-03-06T01:52:52.797Z,94702.44
2023-03-06T01:55:30.964Z,94707.19
2023-03-06T01:58:01.465Z,94696.38
2023-03-06T02:00:29.837Z,94695.78
2023-03-06T02:03:11.222Z,94701.97
2023-03-06T02:05:40.440Z,94701.44
2023-03-06T02:08:10.592Z,94695.72
2023-03-06T02:10:37.634Z,94699.47
2023-03-06T02:13:04.292Z,94698.69
2023-03-06T02:15:30.983Z,94688.97
2023-03-06T02:17:59.802Z,94688.56
2023-03-06T02:20:43.202Z,94690.50
2023-03-06T02:23:23.378Z,94695.91
2023-03-06T02:25:52.831Z,94688.91
2023-03-06T02:28:22.657Z,94688.66
2023-03-06T02:30:51.767Z,94688.19
2023-03-06T02:33:22.464Z,94686.91
2023-03-06T02:36:03.583Z,94684.09
2023-03-06T02:38:40.953Z,94672.81
2023-03-06T02:41:08.749Z,94681.00
2023-03-06T02:43:38.670Z,94672.53
2023-03-06T02:46:06.013Z,94670.59
2023-03-06T02:48:32.897Z,94664.41
2023-03-06T02:50:59.463Z,94666.34
2023-03-06T02:53:26.400Z,94658.28
2023-03-06T02:55:52.944Z,94659.31
2023-03-06T02:58:19.481Z,94658.81
2023-03-06T03:00:47.734Z,94664.38
2023-03-06T03:03:14.347Z,94651.97
2023-03-06T03:05:41.038Z,94651.91
2023-03-06T03:08:07.679Z,94650.25
2023-03-06T03:10:34.212Z,94644.44
2023-03-06T03:13:00.710Z,94653.03
2023-03-06T03:15:28.857Z,94656.94
2023-03-06T03:17:55.363Z,94655.09
2023-03-06T03:20:22.700Z,94659.41
2023-03-06T03:22:55.062Z,94663.16
2023-03-06T03:25:23.571Z,94649.28
2023-03-06T03:27:50.709Z,94651.72
2023-03-06T03:30:17.586Z,94659.66
2023-03-06T03:32:44.230Z,94653.19
2023-03-06T03:35:11.589Z,94655.09
2023-03-06T03:37:38.515Z,94663.59
2023-03-06T03:40:05.605Z,94653.16
2023-03-06T03:42:32.151Z,94652.19
2023-03-06T03:44:58.650Z,94645.63
2023-03-06T03:47:25.274Z,94644.47
2023-03-06T03:49:51.766Z,94643.00
2023-03-06T03:52:18.288Z,94645.03
2023-03-06T03:54:44.821Z,94641.78
2023-03-06T03:57:11.453Z,94639.22
2023-03-06T03:59:37.969Z,94639.81
2023-03-06T04:02:04.516Z,94638.38
2023-03-06T04:04:31.089Z,94631.34
2023-03-06T04:06:57.692Z,94644.38
2023-03-06T04:09:24.326Z,94633.56
2023-03-06T04:11:50.848Z,94629.41
2023-03-06T04:14:17.320Z,94635.56
2023-03-06T04:16:43.795Z,94634.22
2023-03-06T04:19:10.323Z,94632.78
2023-03-06T04:21:36.860Z,94632.00
2023-03-06T04:24:03.689Z,94628.13
2023-03-06T04:26:30.198Z,94641.47
2023-03-06T04:28:56.741Z,94636.56
2023-03-06T04:31:23.368Z,94625.81
2023-03-06T04:33:49.938Z,94636.56
2023-03-06T04:36:30.039Z,94626.53
2023-03-06T04:38:56.943Z,94620.47
2023-03-06T04:41:23.818Z,94632.53
2023-03-06T04:43:50.661Z,94620.28
2023-03-06T04:46:17.232Z,94627.81
2023-03-06T04:48:47.656Z,94629.94
2023-03-06T04:51:15.294Z,94631.25
2023-03-06T04:53:41.835Z,94624.06
2023-03-06T04:56:08.614Z,94629.44
2023-03-06T04:58:35.189Z,94627.81
2023-03-06T05:01:01.921Z,94612.16
2023-03-06T05:03:28.440Z,94627.03
2023-03-06T05:05:54.956Z,94625.88
2023-03-06T05:08:21.646Z,94621.09
2023-03-06T05:10:55.351Z,94625.00
2023-03-06T05:13:22.013Z,94624.19
2023-03-06T05:15:48.510Z,94624.50
2023-03-06T05:18:15.304Z,94620.00
2023-03-06T05:20:41.829Z,94623.84
2023-03-06T05:23:08.461Z,94624.44
2023-03-06T05:25:34.954Z,94620.41
2023-03-06T05:28:01.477Z,94628.09
2023-03-06T05:30:27.950Z,94633.63
2023-03-06T05:32:54.501Z,94630.72
2023-03-06T05:35:22.910Z,94639.16
2023-03-06T05:37:50.266Z,94634.00
2023-03-06T05:40:19.811Z,94633.16
2023-03-06T05:42:46.413Z,94634.88
2023-03-06T05:45:14.139Z,94637.19
2023-03-06T05:47:43.158Z,94635.22
2023-03-06T05:50:10.731Z,94638.53
2023-03-06T05:52:38.570Z,94629.03
2023-03-06T05:55:05.520Z,94624.31
2023-03-06T05:57:32.010Z,94628.28
2023-03-06T05:59:58.472Z,94622.25
2023-03-06T06:02:25.055Z,94625.19
2023-03-06T06:04:51.555Z,94626.47
2023-03-06T06:07:18.151Z,94626.88
2023-03-06T06:09:44.986Z,94632.97
2023-03-06T06:12:12.006Z,94630.19
2023-03-06T06:14:38.506Z,94633.91
2023-03-06T06:17:05.020Z,94639.44
2023-03-06T06:19:31.771Z,94636.53
2023-03-06T06:21:58.874Z,94639.53
2023-03-06T06:24:26.267Z,94629.59
2023-03-06T06:26:54.929Z,94641.84
2023-03-06T06:29:23.091Z,94636.31
2023-03-06T06:31:49.979Z,94637.94
2023-03-06T06:34:17.816Z,94635.69
2023-03-06T06:36:44.444Z,94633.56
2023-03-06T06:39:15.284Z,94642.56
2023-03-06T06:41:59.466Z,94635.34
2023-03-06T06:44:28.379Z,94643.78
2023-03-06T06:49:41.464Z,94657.41
2023-03-06T06:52:07.986Z,94655.72
2023-03-06T06:54:34.853Z,94659.50
2023-03-06T06:57:01.654Z,94660.38
2023-03-06T06:59:28.154Z,94658.66
2023-03-06T07:01:54.649Z,94655.91
2023-03-06T07:04:21.236Z,94653.00
2023-03-06T07:06:47.876Z,94659.84
2023-03-06T07:09:14.546Z,94661.53
2023-03-06T07:11:41.860Z,94656.78
2023-03-06T07:14:08.688Z,94655.59
2023-03-06T07:16:35.403Z,94653.66
2023-03-06T07:19:02.403Z,94656.31
2023-03-06T07:21:29.057Z,94644.59
2023-03-06T07:23:56.110Z,94654.25
2023-03-06T07:26:23.636Z,94653.91
2023-03-06T07:28:52.860Z,94645.28
2023-03-06T07:31:21.806Z,94649.50
2023-03-06T07:33:49.590Z,94648.84
2023-03-06T07:36:16.298Z,94654.88
2023-03-06T07:38:42.831Z,94657.00
2023-03-06T07:41:09.971Z,94658.94
2023-03-06T07:43:36.567Z,94665.78
2023-03-06T07:46:03.087Z,94670.34
2023-03-06T07:48:30.611Z,94664.31
2023-03-06T07:51:07.326Z,94661.00
2023-03-06T07:53:35.426Z,94662.13
2023-03-06T07:56:04.672Z,94656.56
2023-03-06T07:58:33.375Z,94661.78
2023-03-06T08:01:07.416Z,94665.38
2023-03-06T08:03:34.389Z,94669.34
2023-03-06T08:06:27.188Z,94672.63
2023-03-06T08:08:55.470Z,94667.38
2023-03-06T08:11:25.451Z,94667.25
2023-03-06T08:13:52.240Z,94665.78
2023-03-06T08:16:23.688Z,94670.34
2023-03-06T08:18:50.891Z,94668.69
2023-03-06T08:21:20.981Z,94671.13
2023-03-06T08:23:48.090Z,94675.84
2023-03-06T08:26:21.595Z,94672.91
2023-03-06T08:28:48.352Z,94664.09
2023-03-06T08:31:24.360Z,94668.97
2023-03-06T08:33:51.048Z,94674.91
2023-03-06T08:36:17.563Z,94685.91
2023-03-06T08:38:44.126Z,94674.78
2023-03-06T08:41:10.701Z,94683.19
2023-03-06T08:43:37.182Z,94676.38
2023-03-06T08:46:03.995Z,94686.31
2023-03-06T08:48:30.861Z,94681.59
2023-03-06T08:50:57.508Z,94682.44
2023-03-06T08:53:33.439Z,94685.69
2023-03-06T08:56:35.966Z,94686.97
2023-03-06T08:59:05.124Z,94682.13
2023-03-06T09:01:35.271Z,94683.97
2023-03-06T09:04:05.746Z,94684.09
2023-03-06T09:06:35.684Z,94673.75
2023-03-06T09:09:02.469Z,94680.88
2023-03-06T09:11:29.150Z,94675.78
2023-03-06T09:13:57.233Z,94677.19
2023-03-06T09:16:25.031Z,94676.09
2023-03-06T09:18:51.744Z,94679.91
2023-03-06T09:21:20.075Z,94677.88
2023-03-06T09:23:46.609Z,94677.22
2023-03-06T09:26:13.201Z,94686.25
2023-03-06T09:28:40.751Z,94678.16
2023-03-06T09:31:12.083Z,94676.47
2023-03-06T09:33:39.226Z,94683.00
2023-03-06T09:36:08.140Z,94687.41
2023-03-06T09:38:35.239Z,94690.84
2023-03-06T09:41:14.760Z,94690.56
2023-03-06T09:43:47.022Z,94674.19
2023-03-06T09:46:32.449Z,94673.72
2023-03-06T09:49:32.856Z,94676.38
2023-03-06T09:52:02.294Z,94686.72
2023-03-06T09:54:53.841Z,94682.53
2023-03-06T09:57:28.906Z,94679.97
2023-03-06T10:00:04.506Z,94670.97
2023-03-06T10:02:40.646Z,94674.34
2023-03-06T10:05:16.251Z,94671.03
2023-03-06T10:07:49.014Z,94662.59
2023-03-06T10:10:26.673Z,94668.25
2023-03-06T10:13:00.400Z,94663.06
2023-03-06T10:15:34.659Z,94665.53
2023-03-06T10:18:03.003Z,94659.72
2023-03-06T10:20:41.052Z,94662.06
2023-03-06T10:23:42.258Z,94658.91
2023-03-06T10:26:21.114Z,94661.84
2023-03-06T10:29:17.003Z,94655.19
2023-03-06T10:31:50.831Z,94655.63
2023-03-06T10:34:23.088Z,94654.09
2023-03-06T10:36:50.204Z,94656.28
2023-03-06T10:39:22.346Z,94659.38
2023-03-06T10:41:50.101Z,94650.59
2023-03-06T10:44:21.602Z,94652.44
2023-03-06T10:46:51.096Z,94651.94
2023-03-06T10:49:25.619Z,94656.06
2023-03-06T10:52:21.605Z,94648.56
2023-03-06T10:54:48.138Z,94650.66
2023-03-06T10:57:32.165Z,94644.63
2023-03-06T11:00:02.774Z,94646.00
2023-03-06T11:02:31.015Z,94637.25
2023-03-06T11:05:00.461Z,94637.88
2023-03-06T11:07:35.135Z,94635.00
2023-03-06T11:10:17.316Z,94645.22
2023-03-06T11:13:05.307Z,94646.28
2023-03-06T11:15:31.872Z,94637.88
2023-03-06T11:18:26.562Z,94645.94
2023-03-06T11:20:55.390Z,94622.47
2023-03-06T11:23:29.410Z,94639.63
2023-03-06T11:26:24.157Z,94637.50
2023-03-06T11:29:00.920Z,94637.75
2023-03-06T11:31:35.011Z,94629.59
2023-03-06T11:34:18.424Z,94627.63
2023-03-06T11:37:09.070Z,94630.22
2023-03-06T11:39:48.699Z,94613.31
2023-03-06T11:42:37.535Z,94626.56
2023-03-06T11:45:25.927Z,94612.28
2023-03-06T11:48:08.944Z,94611.66
2023-03-06T11:50:44.672Z,94608.50
2023-03-06T11:53:18.454Z,94599.94
2023-03-06T11:56:09.188Z,94598.41
2023-03-06T11:59:05.060Z,94584.16
2023-03-06T12:01:49.966Z,94581.91
2023-03-06T12:04:25.537Z,94585.94
2023-03-06T12:06:52.023Z,94588.13
2023-03-06T12:09:30.512Z,94566.09
2023-03-06T12:12:18.386Z,94574.13
2023-03-06T12:15:19.297Z,94566.78
2023-03-06T12:17:57.590Z,94567.91
2023-03-06T12:21:05.037Z,94553.47
2023-03-06T12:24:02.698Z,94556.38
2023-03-06T12:26:54.858Z,94544.78
2023-03-06T12:29:52.095Z,94558.31
2023-03-06T12:32:31.746Z,94544.25
2023-03-06T12:35:25.473Z,94542.50
2023-03-06T12:38:18.789Z,94537.16
2023-03-06T12:41:16.393Z,94532.16
2023-03-06T12:43:45.827Z,94530.47
2023-03-06T12:46:20.301Z,94531.41
2023-03-06T12:49:23.201Z,94521.19
2023-03-06T12:51:59.359Z,94520.66
2023-03-06T12:54:30.936Z,94509.16
2023-03-06T12:57:00.507Z,94508.25
2023-03-06T12:59:37.485Z,94507.41
2023-03-06T13:02:31.003Z,94503.41
2023-03-06T13:05:03.594Z,94504.25
2023-03-06T13:07:50.093Z,94510.63
2023-03-06T13:10:31.749Z,94503.09
2023-03-06T13:13:01.314Z,94502.47
2023-03-06T13:16:30.594Z,94499.00
2023-03-06T13:19:19.533Z,94490.22
2023-03-06T13:21:54.860Z,94493.84
2023-03-06T13:24:23.783Z,94493.06
2023-03-06T13:26:54.957Z,94488.28
2023-03-06T13:29:36.723Z,94472.53
2023-03-06T13:32:03.471Z,94480.34
2023-03-06T13:34:32.944Z,94479.41
2023-03-06T13:37:17.900Z,94487.69
2023-03-06T13:39:56.286Z,94496.88
2023-03-06T13:42:31.573Z,94478.94
2023-03-06T13:45:08.120Z,94483.63
2023-03-06T13:47:55.761Z,94476.78
2023-03-06T13:50:38.856Z,94478.09
2023-03-06T13:53:25.745Z,94475.84
2023-03-06T13:56:08.683Z,94483.94
2023-03-06T13:58:49.843Z,94473.63
2023-03-06T14:01:40.283Z,94468.34
2023-03-06T14:04:29.472Z,94468.16
2023-03-06T14:06:58.994Z,94467.91
2023-03-06T14:09:41.143Z,94463.41
2023-03-06T14:12:24.392Z,94462.44
2023-03-06T14:14:56.783Z,94460.16
2023-03-06T14:17:33.015Z,94459.66
2023-03-06T14:20:18.234Z,94455.94
2023-03-06T14:22:44.747Z,94454.81
2023-03-06T14:25:29.926Z,94455.47
2023-03-06T14:28:02.977Z,94452.34
2023-03-06T14:30:35.689Z,94449.66
2023-03-06T14:33:10.762Z,94450.00
2023-03-06T14:35:37.948Z,94445.00
2023-03-06T14:38:06.400Z,94457.50
2023-03-06T14:40:42.920Z,94451.22
2023-03-06T14:43:28.008Z,94445.88
2023-03-06T14:45:57.373Z,94449.50
2023-03-06T14:48:35.945Z,94426.81
2023-03-06T14:51:02.492Z,94438.34
2023-03-06T14:53:33.268Z,94431.75
2023-03-06T14:56:07.590Z,94431.75
2023-03-06T14:58:53.692Z,94433.38
2023-03-06T15:01:36.563Z,94426.91
2023-03-06T15:04:35.391Z,94423.69
2023-03-06T15:07:11.201Z,94433.38
2023-03-06T15:09:38.857Z,94421.16
2023-03-06T15:12:20.430Z,94427.84
2023-03-06T15:14:57.031Z,94430.41
2023-03-06T15:17:29.246Z,94417.44
2023-03-06T15:19:59.268Z,94419.88
2023-03-06T15:22:36.088Z,94424.13
2023-03-06T15:25:24.154Z,94424.16
2023-03-06T15:27:52.394Z,94420.56
2023-03-06T15:30:31.452Z,94414.53
2023-03-06T15:33:22.556Z,94423.38
2023-03-06T15:35:59.197Z,94425.91
2023-03-06T15:38:46.191Z,94424.38
2023-03-06T15:41:34.317Z,94443.56
2023-03-06T15:44:03.670Z,94431.53
2023-03-06T15:46:30.182Z,94433.38
2023-03-06T15:48:57.892Z,94429.44
2023-03-06T15:51:25.337Z,94433.03
2023-03-06T15:53:54.989Z,94434.03
2023-03-06T15:56:31.946Z,94431.25
2023-03-06T15:59:01.136Z,94437.91
2023-03-06T16:01:30.314Z,94437.13
2023-03-06T16:03:57.733Z,94438.41
2023-03-06T16:06:24.767Z,94431.59
2023-03-06T16:08:53.118Z,94433.34
2023-03-06T16:11:35.319Z,94426.47
2023-03-06T16:14:17.152Z,94438.00
2023-03-06T16:16:43.667Z,94436.50
2023-03-06T16:19:25.369Z,94436.06
2023-03-06T16:21:52.742Z,94439.63
2023-03-06T16:24:19.261Z,94438.13
2023-03-06T16:26:48.995Z,94448.06
2023-03-06T16:29:21.852Z,94438.63
2023-03-06T16:31:48.589Z,94451.81
2023-03-06T16:34:16.123Z,94448.09
2023-03-06T16:36:42.663Z,94450.09
2023-03-06T16:39:21.114Z,94453.34
2023-03-06T16:41:47.850Z,94455.59
2023-03-06T16:44:14.659Z,94450.50
2023-03-06T16:46:43.989Z,94463.88
2023-03-06T16:49:16.655Z,94467.44
2023-03-06T16:51:44.075Z,94465.06
2023-03-06T16:54:10.967Z,94479.69
2023-03-06T16:56:37.440Z,94471.97
2023-03-06T16:59:03.955Z,94466.63
2023-03-06T17:01:30.582Z,94469.03
2023-03-06T17:03:58.209Z,94477.16
2023-03-06T17:06:24.688Z,94474.66
2023-03-06T17:08:54.599Z,94481.22
2023-03-06T17:11:22.429Z,94489.09
2023-03-06T17:13:49.188Z,94489.63
2023-03-06T17:16:16.366Z,94503.66
2023-03-06T17:18:45.202Z,94504.81
2023-03-06T17:21:13.903Z,94496.81
2023-03-06T17:23:40.425Z,94507.59
2023-03-06T17:26:10.319Z,94515.91
2023-03-06T17:28:38.323Z,94507.41
2023-03-06T17:31:19.801Z,94517.66
2023-03-06T17:33:47.219Z,94519.84
2023-03-06T17:36:15.906Z,94517.50
2023-03-06T17:38:43.098Z,94520.66
2023-03-06T17:41:12.024Z,94523.56
2023-03-06T17:43:39.298Z,94522.03
2023-03-06T17:46:11.351Z,94542.81
2023-03-06T17:48:38.896Z,94542.69
2023-03-06T17:51:05.844Z,94546.56
2023-03-06T17:53:33.237Z,94554.13
2023-03-06T17:55:59.739Z,94556.75
2023-03-06T17:58:27.279Z,94558.47
2023-03-06T18:00:54.298Z,94562.84
2023-03-06T18:03:20.861Z,94563.81
2023-03-06T18:06:01.980Z,94570.81
2023-03-06T18:08:28.535Z,94576.97
2023-03-06T18:11:02.346Z,94577.28
2023-03-06T18:13:28.843Z,94577.53
2023-03-06T18:15:55.379Z,94583.06
2023-03-06T18:18:22.638Z,94581.59
2023-03-06T18:20:49.127Z,94573.72
2023-03-06T18:23:15.732Z,94586.81
2023-03-06T18:25:42.868Z,94586.13
2023-03-06T18:28:09.470Z,94595.59
2023-03-06T18:30:38.241Z,94578.84
2023-03-06T18:33:05.142Z,94587.13
2023-03-06T18:35:33.514Z,94584.19
2023-03-06T18:38:00.874Z,94604.09
2023-03-06T18:40:27.400Z,94598.16
2023-03-06T18:42:54.341Z,94603.81
2023-03-06T18:45:21.357Z,94598.91
2023-03-06T18:47:47.886Z,94604.78
2023-03-06T18:50:14.386Z,94606.41
2023-03-06T18:52:40.858Z,94609.84
2023-03-06T18:55:07.567Z,94618.66
2023-03-06T18:57:34.138Z,94625.97
2023-03-06T19:00:01.095Z,94624.69
2023-03-06T19:02:27.643Z,94632.88
2023-03-06T19:04:54.116Z,94628.28
2023-03-06T19:07:20.609Z,94629.41
2023-03-06T19:09:50.226Z,94623.38
2023-03-06T19:12:16.897Z,94631.38
2023-03-06T19:14:44.405Z,94624.03
2023-03-06T19:17:10.924Z,94621.91
2023-03-06T19:19:37.458Z,94622.06
2023-03-06T19:22:03.966Z,94622.06
2023-03-06T19:24:30.624Z,94631.06
2023-03-06T19:26:57.171Z,94635.91
2023-03-06T19:29:23.660Z,94635.53
2023-03-06T19:31:50.250Z,94638.81
2023-03-06T19:34:16.776Z,94643.59
2023-03-06T19:36:43.244Z,94656.09
2023-03-06T19:39:12.578Z,94660.22
2023-03-06T19:41:39.063Z,94659.22
2023-03-06T19:44:05.571Z,94657.28
2023-03-06T19:46:32.764Z,94664.03
2023-03-06T19:49:02.103Z,94678.09
2023-03-06T19:51:29.325Z,94651.47
2023-03-06T19:53:56.894Z,94666.22
2023-03-06T19:56:26.952Z,94660.66
2023-03-06T19:58:53.804Z,94666.78
2023-03-06T20:01:22.443Z,94667.84
2023-03-06T20:03:49.188Z,94666.84
2023-03-06T20:06:18.317Z,94676.09
2023-03-06T20:08:46.440Z,94666.16
2023-03-06T20:11:25.521Z,94670.19
2023-03-06T20:13:52.638Z,94670.25
2023-03-06T20:16:19.667Z,94677.59
2023-03-06T20:18:46.463Z,94676.00
2023-03-06T20:21:14.195Z,94678.72
2023-03-06T20:23:41.303Z,94681.06
2023-03-06T20:26:10.959Z,94682.66
2023-03-06T20:28:39.356Z,94689.50
2023-03-06T20:31:11.767Z,94679.38
2023-03-06T20:33:38.432Z,94683.69
2023-03-06T20:36:13.925Z,94687.38
2023-03-06T20:38:43.451Z,94686.09
2023-03-06T20:41:24.029Z,94684.06
2023-03-06T20:43:51.492Z,94678.09
2023-03-06T20:46:19.742Z,94685.19
2023-03-06T20:48:49.086Z,94675.84
2023-03-06T20:51:19.901Z,94682.88
2023-03-06T20:53:48.308Z,94675.06
2023-03-06T20:56:17.334Z,94674.19
2023-03-06T20:58:44.055Z,94673.34
2023-03-06T21:01:28.199Z,94678.25
2023-03-06T21:03:58.286Z,94674.00
2023-03-06T21:06:28.953Z,94676.81
2023-03-06T21:08:59.999Z,94682.00
2023-03-06T21:11:26.936Z,94673.22
2023-03-06T21:13:54.758Z,94677.66
2023-03-06T21:16:24.268Z,94674.44
2023-03-06T21:18:51.723Z,94675.78
2023-03-06T21:21:20.559Z,94671.13
2023-03-06T21:23:48.901Z,94670.41
2023-03-06T21:26:18.816Z,94665.25
2023-03-06T21:28:45.708Z,94673.66
2023-03-06T21:31:14.066Z,94674.97
2023-03-06T21:33:41.084Z,94671.72
2023-03-06T21:36:07.841Z,94663.56
2023-03-06T21:38:35.129Z,94669.44
2023-03-06T21:41:17.913Z,94664.19
2023-03-06T21:43:44.722Z,94666.16
2023-03-06T21:46:11.981Z,94660.75
2023-03-06T21:48:41.578Z,94655.72
2023-03-06T21:51:14.616Z,94659.31
2023-03-06T21:53:46.005Z,94647.88
2023-03-06T21:56:14.783Z,94654.91
2023-03-06T21:58:41.439Z,94642.66
2023-03-06T22:01:13.006Z,94642.31
2023-03-06T22:03:39.916Z,94649.50
2023-03-06T22:06:13.312Z,94647.19
2023-03-06T22:08:40.572Z,94651.13
2023-03-06T22:11:27.018Z,94640.19
2023-03-06T22:13:53.681Z,94639.19
2023-03-06T22:16:20.317Z,94643.88
2023-03-06T22:18:49.972Z,94636.75
2023-03-06T22:21:19.306Z,94636.41
2023-03-06T22:23:50.639Z,94644.91
2023-03-06T22:26:20.173Z,94645.91
2023-03-06T22:28:46.849Z,94650.16
2023-03-06T22:31:16.137Z,94653.56
2023-03-06T22:33:52.145Z,94639.50
2023-03-06T22:36:21.656Z,94643.91
2023-03-06T22:38:52.804Z,94639.00
2023-03-06T22:41:19.343Z,94640.63
2023-03-06T22:43:45.983Z,94643.84
2023-03-06T22:46:17.236Z,94641.56
2023-03-06T22:48:44.946Z,94643.34
2023-03-06T22:51:17.925Z,94644.22
2023-03-06T22:53:45.255Z,94642.91
2023-03-06T22:56:15.401Z,94640.28
2023-03-06T22:58:42.024Z,94642.94
2023-03-06T23:01:12.076Z,94643.88
2023-03-06T23:03:43.581Z,94644.56
2023-03-06T23:06:13.663Z,94639.00
2023-03-06T23:08:40.828Z,94636.56
2023-03-06T23:11:13.511Z,94627.91
2023-03-06T23:13:40.028Z,94637.19
2023-03-06T23:16:08.883Z,94633.44
2023-03-06T23:18:37.448Z,94631.47
2023-03-06T23:21:12.069Z,94635.22
2023-03-06T23:23:39.471Z,94635.06
2023-03-06T23:26:07.756Z,94630.81
2023-03-06T23:28:34.428Z,94633.94
2023-03-06T23:31:13.650Z,94629.19
2023-03-06T23:33:40.261Z,94628.88
2023-03-06T23:36:12.277Z,94629.03
2023-03-06T23:38:39.813Z,94629.84
2023-03-06T23:41:13.917Z,94626.94
2023-03-06T23:43:40.492Z,94626.94
2023-03-06T23:46:07.147Z,94624.94
2023-03-06T23:48:35.415Z,94625.50
2023-03-06T23:51:09.852Z,94629.88
2023-03-06T23:53:36.347Z,94627.44
2023-03-06T23:56:05.760Z,94623.06
2023-03-06T23:58:32.562Z,94623.38
